Time;durP1;ratioP1;P1;durP2;ratioP2;P2;SDS_P1;SDS_P2;PMS_P1;PMS_P2;Temp;Humidity;BMP_temperature;BMP_pressure;BME280_temperature;BME280_humidity;BME280_pressure;Samples;Min_cycle;Max_cycle;Signal;HPM_P1;HPM_P2
2023/06/15 00:04:51;;;;;;;0.90;0.70;;;;;;;;;;20769782;28;20266;-71
2023/06/15 00:15:00;;;;;;;1.20;0.60;;;;;;;;;;20782747;28;20278;-69
2023/06/15 00:25:11;;;;;;;2.03;0.80;;;;;;;;;;20775283;28;20241;-69
2023/06/15 00:35:12;;;;;;;1.20;0.70;;;;;;;;;;20773676;28;20292;-71
2023/06/15 00:45:14;;;;;;;1.00;0.68;;;;;;;;;;20789487;28;20219;-72
2023/06/15 00:55:17;;;;;;;3.58;0.90;;;;;;;;;;20784190;28;20234;-72
2023/06/15 01:05:19;;;;;;;0.95;0.60;;;;;;;;;;20753246;28;20225;-72
2023/06/15 01:15:22;;;;;;;0.90;0.68;;;23.10;87.80;;;;;;20769989;28;20269;-71
2023/06/15 01:25:45;;;;;;;2.55;0.85;;;23.10;77.20;;;;;;20767038;28;20234;-72
2023/06/15 01:35:47;;;;;;;2.25;0.80;;;23.20;81.00;;;;;;20785677;28;20229;-72
2023/06/15 01:45:50;;;;;;;1.08;0.63;;;;;;;;;;20769233;28;20229;-72
2023/06/15 01:55:52;;;;;;;0.85;0.50;;;;;;;;;;20752750;28;20242;-72
2023/06/15 02:05:54;;;;;;;0.90;0.60;;;;;;;;;;20772030;28;20224;-72
2023/06/15 02:15:56;;;;;;;0.75;0.57;;;;;;;;;;20766768;28;20223;-72
2023/06/15 02:25:59;;;;;;;1.90;0.90;;;;;;;;;;20787426;28;20693;-72
2023/06/15 02:36:01;;;;;;;2.05;0.75;;;;;;;;;;20771616;28;20284;-72
2023/06/15 02:46:03;;;;;;;0.98;0.60;;;;;;;;;;20798364;28;20220;-72
2023/06/15 02:56:05;;;;;;;1.67;0.60;;;;;;;;;;20781149;28;20230;-72
2023/06/15 03:06:10;;;;;;;1.33;0.80;;;;;;;;;;20780861;28;20274;-72
2023/06/15 03:16:15;;;;;;;1.35;0.60;;;;;;;;;;20779730;28;20225;-71
2023/06/15 03:26:18;;;;;;;1.13;0.77;;;;;;;;;;20779190;28;20262;-75
2023/06/15 03:36:29;;;;;;;1.50;0.90;;;;;;;;;;20776937;28;20282;-72
2023/06/15 03:46:32;;;;;;;9.83;1.97;;;;;;;;;;20781207;28;20335;-72
2023/06/15 03:56:34;;;;;;;2.80;0.83;;;;;;;;;;20763067;28;20223;-72
2023/06/15 04:06:36;;;;;;;4.07;1.00;;;;;;;;;;20759829;28;20247;-72
2023/06/15 04:16:38;;;;;;;1.17;0.90;;;;;;;;;;20760448;28;20275;-72
2023/06/15 04:26:41;;;;;;;1.37;0.90;;;;;;;;;;20774740;28;20239;-72
2023/06/15 04:36:44;;;;;;;0.93;0.53;;;;;;;;;;20765601;28;20858;-72
2023/06/15 04:46:48;;;;;;;1.33;0.70;;;;;;;;;;20789155;28;20236;-70
2023/06/15 04:56:50;;;;;;;1.30;0.80;;;;;;;;;;20766377;28;20649;-71
2023/06/15 05:06:53;;;;;;;5.80;0.90;;;;;;;;;;20777102;28;20234;-71
2023/06/15 05:16:55;;;;;;;1.50;0.97;;;;;;;;;;20759478;28;20655;-71
2023/06/15 05:26:58;;;;;;;2.57;0.90;;;;;;;;;;20753865;28;20232;-71
2023/06/15 05:37:00;;;;;;;1.47;0.77;;;;;;;;;;20746085;28;20231;-71
2023/06/15 05:47:07;;;;;;;1.00;0.50;;;;;;;;;;20753397;28;20733;-73
2023/06/15 05:57:10;;;;;;;3.33;1.00;;;;;;;;;;20799836;28;20199;-71
2023/06/15 06:07:12;;;;;;;1.10;0.77;;;;;;;;;;20778791;28;20219;-71
2023/06/15 06:17:14;;;;;;;1.60;0.80;;;;;;;;;;20765640;28;20192;-69
2023/06/15 06:27:16;;;;;;;1.27;0.87;;;;;;;;;;20765501;28;20228;-69
2023/06/15 06:37:17;;;;;;;0.80;0.63;;;;;;;;;;20758442;28;20224;-68
2023/06/15 06:47:19;;;;;;;1.90;0.80;;;;;;;;;;20739529;28;20239;-69
2023/06/15 06:57:21;;;;;;;1.50;0.90;;;;;;;;;;20752338;28;20263;-71
2023/06/15 07:07:23;;;;;;;2.38;1.00;;;;;;;;;;20773164;28;20219;-70
2023/06/15 07:17:25;;;;;;;1.70;0.90;;;;;;;;;;20777459;28;20569;-71
2023/06/15 07:27:27;;;;;;;1.27;0.80;;;;;;;;;;20779022;28;20221;-69
2023/06/15 07:37:29;;;;;;;1.00;0.88;;;;;;;;;;20774606;28;20219;-70
2023/06/15 07:47:31;;;;;;;1.65;0.60;;;;;;;;;;20793245;28;20232;-69
2023/06/15 07:57:34;;;;;;;1.50;1.10;;;24.20;83.50;;;;;;20750772;28;20258;-71
2023/06/15 08:07:36;;;;;;;1.52;0.88;;;;;;;;;;20758063;28;20272;-70
2023/06/15 08:17:38;;;;;;;1.85;1.15;;;;;;;;;;20783463;28;20227;-70
2023/06/15 08:27:42;;;;;;;2.95;1.20;;;24.80;77.00;;;;;;20785714;28;20264;-71
2023/06/15 08:37:43;;;;;;;1.88;1.20;;;;;;;;;;20755934;28;20219;-71
2023/06/15 08:47:47;;;;;;;1.48;0.73;;;;;;;;;;20767873;23;20761;-85
2023/06/15 08:57:50;;;;;;;2.20;1.25;;;;;;;;;;20721582;28;20574;-84
2023/06/15 09:07:51;;;;;;;4.05;1.30;;;;;;;;;;20704446;28;20248;-84
2023/06/15 09:17:54;;;;;;;1.50;1.17;;;;;;;;;;20703503;28;20837;-83
2023/06/15 09:27:58;;;;;;;1.55;1.00;;;26.00;82.80;;;;;;20727585;28;20232;-85
2023/06/15 09:38:00;;;;;;;1.67;0.90;;;;;;;;;;20748123;28;20631;-84
2023/06/15 09:48:01;;;;;;;1.33;1.10;;;;;;;;;;20716845;28;20242;-82
2023/06/15 09:58:03;;;;;;;2.65;1.48;;;;;;;;;;20731737;28;20220;-85
2023/06/15 10:08:06;;;;;;;2.08;1.17;;;;;;;;;;20753225;28;20233;-85
2023/06/15 10:18:10;;;;;;;1.67;1.10;;;27.40;78.00;;;;;;20743839;28;20217;-84
2023/06/15 10:28:13;;;;;;;2.40;1.00;;;;;;;;;;20726283;28;20281;-84
2023/06/15 10:38:24;;;;;;;1.00;0.77;;;;;;;;;;20751683;28;20280;-86
2023/06/15 10:48:34;;;;;;;2.33;1.00;;;;;;;;;;20756975;28;20249;-84
2023/06/15 10:59:05;;;;;;;1.38;0.80;;;;;;;;;;20773019;28;20230;-84
2023/06/15 11:09:12;;;;;;;1.48;0.90;;;28.40;72.20;;;;;;20795158;28;20910;-85
2023/06/15 11:19:14;;;;;;;1.17;0.88;;;;;;;;;;20769957;28;20219;-84
2023/06/15 11:29:22;;;;;;;2.10;0.85;;;28.70;74.30;;;;;;20722808;28;20276;-84
2023/06/15 11:39:24;;;;;;;1.65;0.77;;;;;;;;;;20773582;28;20580;-86
2023/06/15 11:49:31;;;;;;;1.95;0.73;;;;;;;;;;20753697;28;20261;-84
2023/06/15 11:59:35;;;;;;;0.98;0.70;;;29.50;71.50;;;;;;20787287;28;20779;-83
2023/06/15 12:09:37;;;;;;;1.15;0.60;;;;;;;;;;20753167;28;20272;-84
2023/06/15 12:19:41;;;;;;;1.23;0.88;;;;;;;;;;20734507;28;20281;-84
2023/06/15 12:29:43;;;;;;;1.40;0.80;;;;;;;;;;20747457;28;20218;-85
2023/06/15 12:39:45;;;;;;;1.13;0.80;;;;;;;;;;20771469;28;20224;-83
2023/06/15 12:49:47;;;;;;;1.13;0.80;;;;;;;;;;20781580;28;20277;-84
2023/06/15 12:59:49;;;;;;;1.20;0.60;;;;;;;;;;20744253;28;20248;-84
2023/06/15 13:09:51;;;;;;;2.25;0.90;;;;;;;;;;20725834;28;20268;-83
2023/06/15 13:19:52;;;;;;;1.33;0.60;;;;;;;;;;20758836;28;20293;-82
2023/06/15 13:29:54;;;;;;;1.35;0.70;;;;;;;;;;20740736;28;20261;-83
2023/06/15 13:39:56;;;;;;;1.17;0.80;;;;;;;;;;20752733;28;20717;-87
2023/06/15 13:49:58;;;;;;;1.40;0.88;;;;;;;;;;20762700;28;20238;-84
2023/06/15 13:59:59;;;;;;;1.00;0.63;;;;;;;;;;20778328;28;20226;-85
2023/06/15 14:10:01;;;;;;;1.02;0.85;;;;;;;;;;20810809;28;20280;-84
2023/06/15 14:20:03;;;;;;;1.23;0.75;;;;;;;;;;20790881;28;20607;-84
2023/06/15 14:30:06;;;;;;;0.90;0.73;;;;;;;;;;20752862;28;20222;-85
2023/06/15 14:40:07;;;;;;;1.40;0.82;;;;;;;;;;20757947;28;20237;-85
2023/06/15 14:50:13;;;;;;;1.27;0.90;;;;;;;;;;20721536;28;20269;-85
2023/06/15 15:00:15;;;;;;;1.55;0.80;;;;;;;;;;20756738;28;20295;-85
2023/06/15 15:10:17;;;;;;;1.10;0.70;;;;;;;;;;20728080;28;20227;-84
2023/06/15 15:20:18;;;;;;;1.83;1.08;;;;;;;;;;20739497;28;20230;-85
2023/06/15 15:30:23;;;;;;;2.35;0.70;;;;;;;;;;20712363;28;20234;-85
2023/06/15 15:40:25;;;;;;;1.00;0.70;;;;;;;;;;20781886;28;20227;-85
2023/06/15 15:50:27;;;;;;;1.48;0.70;;;;;;;;;;20734690;28;20718;-85
2023/06/15 16:00:29;;;;;;;1.45;1.00;;;;;;;;;;20811640;28;20227;-84
2023/06/15 16:10:31;;;;;;;0.90;0.60;;;;;;;;;;20720256;28;20219;-85
2023/06/15 16:20:32;;;;;;;0.75;0.50;;;;;;;;;;20736967;28;20697;-85
2023/06/15 16:30:34;;;;;;;0.95;0.60;;;;;;;;;;20805606;28;20289;-85
2023/06/15 16:40:37;;;;;;;0.90;0.60;;;;;;;;;;20779493;28;20309;-85
2023/06/15 16:50:39;;;;;;;1.02;0.60;;;;;;;;;;20788328;28;20243;-85
2023/06/15 17:00:41;;;;;;;0.90;0.60;;;;;;;;;;20777965;28;20245;-85
2023/06/15 17:10:43;;;;;;;1.20;0.73;;;;;;;;;;20753694;28;20230;-83
2023/06/15 17:20:45;;;;;;;1.52;0.68;;;;;;;;;;20777880;28;20226;-84
2023/06/15 17:30:48;;;;;;;1.38;0.80;;;;;;;;;;20747904;28;20972;-84
2023/06/15 17:40:49;;;;;;;1.35;0.70;;;;;;;;;;20781812;28;20269;-83
2023/06/15 17:50:51;;;;;;;2.85;0.80;;;;;;;;;;20803673;28;20231;-84
2023/06/15 18:00:55;;;;;;;1.85;0.90;;;;;;;;;;20762981;28;20672;-84
2023/06/15 18:10:57;;;;;;;2.30;0.90;;;;;;;;;;20761738;28;20230;-83
2023/06/15 18:20:59;;;;;;;1.20;0.82;;;;;;;;;;20737945;28;20237;-82
2023/06/15 18:31:01;;;;;;;0.85;0.70;;;;;;;;;;20700653;28;20587;-82
2023/06/15 18:41:02;;;;;;;1.73;0.80;;;;;;;;;;20734927;28;20250;-83
2023/06/15 18:51:04;;;;;;;2.35;0.73;;;;;;;;;;20771845;28;20260;-83
2023/06/15 19:01:06;;;;;;;2.30;0.70;;;;;;;;;;20731437;28;20254;-83
2023/06/15 19:11:08;;;;;;;1.33;0.98;;;;;;;;;;20738309;28;20214;-83
2023/06/15 19:21:09;;;;;;;1.75;1.10;;;;;;;;;;20772747;28;20273;-84
2023/06/15 19:31:12;;;;;;;1.30;0.80;;;;;;;;;;20745161;28;20752;-83
2023/06/15 19:41:13;;;;;;;1.20;0.80;;;;;;;;;;20750500;28;20280;-83
2023/06/15 19:51:15;;;;;;;4.75;1.02;;;;;;;;;;20759600;28;20237;-84
2023/06/15 20:01:17;;;;;;;4.00;1.00;;;;;;;;;;20795571;28;20257;-84
2023/06/15 20:11:19;;;;;;;2.28;0.90;;;;;;;;;;20751548;28;20206;-84
2023/06/15 20:21:27;;;;;;;1.92;0.80;;;;;;;;;;20769131;28;20265;-83
2023/06/15 20:31:29;;;;;;;3.00;1.15;;;;;;;;;;20770479;28;20229;-84
2023/06/15 20:41:31;;;;;;;1.95;0.93;;;;;;;;;;20785907;28;20221;-83
2023/06/15 20:51:33;;;;;;;1.20;0.77;;;;;;;;;;20802986;28;20771;-83
2023/06/15 21:01:35;;;;;;;3.15;1.20;;;;;;;;;;20768204;28;20852;-83
2023/06/15 21:11:37;;;;;;;2.55;1.20;;;;;;;;;;20830175;28;20255;-85
2023/06/15 21:21:38;;;;;;;1.55;0.98;;;;;;;;;;20756012;28;20745;-82
2023/06/15 21:31:40;;;;;;;1.67;1.00;;;;;;;;;;20798609;28;20229;-82
2023/06/15 21:41:42;;;;;;;2.08;1.20;;;;;;;;;;20791764;28;20257;-82
2023/06/15 21:51:43;;;;;;;1.88;0.95;;;;;;;;;;20775021;28;20716;-83
2023/06/15 22:01:45;;;;;;;2.85;1.00;;;;;;;;;;20807547;28;20255;-83
2023/06/15 22:11:47;;;;;;;1.95;0.82;;;;;;;;;;20738326;28;20587;-83
2023/06/15 22:21:49;;;;;;;3.17;1.00;;;;;;;;;;20758992;28;20238;-83
2023/06/15 22:31:52;;;;;;;1.98;1.00;;;;;;;;;;20846154;28;20237;-83
2023/06/15 22:41:53;;;;;;;2.78;1.13;;;;;;;;;;20806031;28;20232;-82
2023/06/15 22:51:58;;;;;;;2.22;1.05;;;;;;;;;;20796263;28;20247;-82
2023/06/15 23:02:00;;;;;;;1.70;1.00;;;;;;;;;;20810714;28;20233;-83
2023/06/15 23:12:12;;;;;;;2.20;0.90;;;;;;;;;;20769097;28;20933;-83
2023/06/15 23:22:21;;;;;;;1.48;1.00;;;;;;;;;;20782601;28;20229;-83
2023/06/15 23:32:23;;;;;;;1.67;1.00;;;;;;;;;;20817294;28;20237;-81
2023/06/15 23:42:25;;;;;;;1.52;0.98;;;;;;;;;;20823551;28;20237;-82
2023/06/15 23:52:27;;;;;;;3.72;1.17;;;;;;;;;;20793279;28;20318;-82
